Accueil
METAR-TAF:

METAR-TAF

Aéroports :

Aérodrome de Koumac

Koumac, Nouvelle-Calédonie

latitude: 20-34S, longitude: 164-17E, altitude: 23 m

METAR: absent

Heure: 21:55 (10:55 UTC)

Prévision

Le bulletin a été fait il y a 5 heures et 55 minutes, à 05:00 UTC
Prévision valable du 22 à 06 UTC au 23 à 06 UTC
Vent 11 kt de sud/sud-est
Visibilité 10 km ou plus
Nuages épars à une hauteur de 5000 ft
Evoluant progressivement
du 22 à 06 UTC au 22 à 08 UTC
Vent 2 kt de direction variable
Evoluant progressivement
du 22 à 21 UTC au 22 à 24 UTC
Vent 11 kt de sud
Visibilité 10 km ou plus
pas de nuages en-dessous de 1500 mètres et pas de cumulonimbus.

TAF: NWWK 220500Z 2206/2306 16011KT 9999 SCT050 BECMG 2206/2208 VRB02KT BECMG 2221/2224 18011KT CAVOK

Observations et prévisions météorologiques de plus de 4000 aéroports (messages METAR et TAF).

Les stations disponibles sont représentées par des disques jaunes et rouges sur la carte.

Passer la souris dessus pour voir le nom de la station.

Cliquer dessus pour voir les observations et prévisions météorologiques.

Pour changer de carte: cliquez sur les boutons verts avec une croix noire pour zoomer, sur le bouton vert avec un tiret pour effectuer un zoom arrière, ou sur les flèches vertes pour les cartes adjacentes.


METAR-TAF: